createdAt,value
2017-08-09T00:02:21.037Z,74.43
2017-08-09T00:04:47.591Z,74.25
2017-08-09T00:07:13.985Z,73.62
2017-08-09T00:09:40.897Z,73.55
2017-08-09T00:12:07.814Z,74.31
2017-08-09T00:14:34.865Z,73.94
2017-08-09T00:17:01.869Z,73.78
2017-08-09T00:19:28.344Z,73.91
2017-08-09T00:21:55.125Z,73.65
2017-08-09T00:24:21.534Z,73.87
2017-08-09T00:26:47.868Z,73.77
2017-08-09T00:29:14.203Z,74.11
2017-08-09T00:31:40.774Z,74.26
2017-08-09T00:34:07.162Z,74.54
2017-08-09T00:36:33.589Z,73.98
2017-08-09T00:38:59.957Z,73.48
2017-08-09T00:41:26.303Z,73.25
2017-08-09T00:43:52.901Z,73.31
2017-08-09T00:46:19.300Z,74.01
2017-08-09T00:48:45.698Z,74.30
2017-08-09T00:51:12.059Z,73.84
2017-08-09T00:53:38.411Z,73.71
2017-08-09T00:56:04.771Z,73.21
2017-08-09T00:58:31.572Z,73.22
2017-08-09T01:00:57.956Z,73.01
2017-08-09T01:03:24.866Z,73.32
2017-08-09T01:05:51.234Z,73.19
2017-08-09T01:08:17.595Z,73.34
2017-08-09T01:10:44.104Z,73.30
2017-08-09T01:13:10.540Z,73.63
2017-08-09T01:15:36.925Z,73.27
2017-08-09T01:18:03.298Z,73.22
2017-08-09T01:20:29.663Z,73.59
2017-08-09T01:22:56.092Z,74.39
2017-08-09T01:25:22.427Z,75.18
2017-08-09T01:27:48.802Z,74.79
2017-08-09T01:30:15.283Z,75.09
2017-08-09T01:32:42.332Z,75.12
2017-08-09T01:35:09.223Z,74.80
2017-08-09T01:37:35.726Z,74.40
2017-08-09T01:40:02.154Z,73.84
2017-08-09T01:42:28.646Z,74.29
2017-08-09T01:44:55.077Z,74.47
2017-08-09T01:47:21.461Z,74.58
2017-08-09T01:49:48.082Z,74.84
2017-08-09T01:52:14.687Z,75.03
2017-08-09T01:54:41.241Z,74.79
2017-08-09T01:57:07.798Z,75.51
2017-08-09T01:59:34.571Z,74.53
2017-08-09T02:02:01.217Z,74.87
2017-08-09T02:04:27.915Z,74.06
2017-08-09T02:06:54.716Z,74.29
2017-08-09T02:09:21.289Z,74.59
2017-08-09T02:11:48.276Z,74.17
2017-08-09T02:14:15.118Z,74.33
2017-08-09T02:16:41.921Z,75.20
2017-08-09T02:19:08.544Z,75.70
2017-08-09T02:21:35.073Z,76.13
2017-08-09T02:24:01.471Z,76.47
2017-08-09T02:26:28.052Z,76.13
2017-08-09T02:28:54.727Z,75.90
2017-08-09T02:31:21.600Z,76.19
2017-08-09T02:33:48.275Z,75.97
2017-08-09T02:36:14.846Z,76.77
2017-08-09T02:38:41.505Z,76.88
2017-08-09T02:41:08.116Z,76.35
2017-08-09T02:43:35.028Z,76.63
2017-08-09T02:46:01.710Z,77.28
2017-08-09T02:48:28.340Z,77.12
2017-08-09T02:50:55.234Z,77.67
2017-08-09T02:53:21.578Z,77.97
2017-08-09T02:55:47.910Z,77.51
2017-08-09T02:58:14.256Z,77.29
2017-08-09T03:00:40.635Z,77.44
2017-08-09T03:03:07.043Z,77.69
2017-08-09T03:05:33.923Z,77.62
2017-08-09T03:08:00.276Z,77.59
2017-08-09T03:10:26.628Z,77.09
2017-08-09T03:12:53.009Z,77.20
2017-08-09T03:15:19.440Z,77.19
2017-08-09T03:17:45.823Z,77.11
2017-08-09T03:20:12.181Z,77.14
2017-08-09T03:22:38.578Z,77.17
2017-08-09T03:25:04.936Z,76.68
2017-08-09T03:27:31.320Z,76.56
2017-08-09T03:29:57.713Z,76.38
2017-08-09T03:32:24.087Z,76.12
2017-08-09T03:34:50.449Z,76.44
2017-08-09T03:37:16.845Z,76.25
2017-08-09T03:39:43.228Z,76.11
2017-08-09T03:42:09.631Z,76.30
2017-08-09T03:44:36.007Z,76.43
2017-08-09T03:47:02.442Z,76.40
2017-08-09T03:49:28.859Z,76.92
2017-08-09T03:51:55.274Z,77.15
2017-08-09T03:54:21.674Z,76.51
2017-08-09T03:56:48.045Z,76.78
2017-08-09T03:59:14.418Z,76.68
2017-08-09T04:01:40.781Z,76.75
2017-08-09T04:04:07.126Z,77.18
2017-08-09T04:06:33.513Z,76.70
2017-08-09T04:08:59.880Z,77.01
2017-08-09T04:11:26.252Z,77.12
2017-08-09T04:13:52.648Z,77.07
2017-08-09T04:16:19.052Z,77.49
2017-08-09T04:18:45.470Z,77.98
2017-08-09T04:21:11.864Z,78.03
2017-08-09T04:23:38.239Z,77.84
2017-08-09T04:26:04.670Z,77.31
2017-08-09T04:28:31.026Z,77.49
2017-08-09T04:30:57.401Z,77.18
2017-08-09T04:33:23.754Z,77.91
2017-08-09T04:35:50.129Z,77.42
2017-08-09T04:38:16.513Z,77.98
2017-08-09T04:40:42.896Z,78.16
2017-08-09T04:43:09.263Z,78.99
2017-08-09T04:45:35.607Z,78.89
2017-08-09T04:48:02.156Z,79.23
2017-08-09T04:50:28.507Z,79.28
2017-08-09T04:52:54.860Z,79.18
2017-08-09T04:55:21.249Z,78.82
2017-08-09T04:57:47.634Z,78.73
2017-08-09T05:00:14.018Z,78.24
2017-08-09T05:02:40.396Z,78.50
2017-08-09T05:05:06.804Z,78.16
2017-08-09T05:07:33.225Z,78.15
2017-08-09T05:09:59.616Z,78.24
2017-08-09T05:12:26.007Z,77.81
2017-08-09T05:14:52.373Z,78.17
2017-08-09T05:17:18.734Z,78.35
2017-08-09T05:19:45.097Z,78.19
2017-08-09T05:22:11.424Z,77.85
2017-08-09T05:24:37.812Z,77.55
2017-08-09T05:27:04.188Z,77.88
2017-08-09T05:29:31.502Z,77.51
2017-08-09T05:31:57.865Z,77.33
2017-08-09T05:34:24.621Z,77.57
2017-08-09T05:36:51.001Z,77.50
2017-08-09T05:39:17.394Z,77.09
2017-08-09T05:41:43.779Z,77.15
2017-08-09T05:44:10.157Z,77.09
2017-08-09T05:46:36.544Z,76.78
2017-08-09T05:49:02.914Z,76.86
2017-08-09T05:51:29.276Z,76.60
2017-08-09T05:53:55.650Z,76.22
2017-08-09T05:56:22.007Z,75.90
2017-08-09T05:58:48.377Z,76.30
2017-08-09T06:01:14.758Z,75.99
2017-08-09T06:03:41.165Z,75.78
2017-08-09T06:06:07.534Z,75.70
2017-08-09T06:08:33.923Z,75.31
2017-08-09T06:11:00.298Z,74.89
2017-08-09T06:13:26.644Z,75.06
2017-08-09T06:15:53.025Z,75.46
2017-08-09T06:18:19.441Z,74.89
2017-08-09T06:20:45.797Z,75.03
2017-08-09T06:23:12.176Z,74.83
2017-08-09T06:25:38.579Z,74.47
2017-08-09T06:28:04.983Z,74.66
2017-08-09T06:30:31.348Z,73.95
2017-08-09T06:32:57.747Z,73.95
2017-08-09T06:35:24.172Z,74.37
2017-08-09T06:37:50.537Z,74.28
2017-08-09T06:40:16.912Z,74.60
2017-08-09T06:42:43.283Z,74.17
2017-08-09T06:45:09.646Z,74.18
2017-08-09T06:47:36.026Z,74.09
2017-08-09T06:50:02.445Z,73.72
2017-08-09T06:52:28.815Z,73.42
2017-08-09T06:54:55.207Z,73.36
2017-08-09T06:57:21.593Z,73.38
2017-08-09T06:59:47.955Z,73.09
2017-08-09T07:02:14.323Z,73.00
2017-08-09T07:04:40.707Z,72.95
2017-08-09T07:07:07.111Z,72.73
2017-08-09T07:09:33.490Z,71.93
2017-08-09T07:11:59.864Z,72.04
2017-08-09T07:14:26.251Z,72.45
2017-08-09T07:16:52.617Z,71.82
2017-08-09T07:19:19.002Z,70.99
2017-08-09T07:21:45.396Z,71.90
2017-08-09T07:24:11.786Z,71.50
2017-08-09T07:26:38.170Z,71.75
2017-08-09T07:29:04.535Z,70.64
2017-08-09T07:31:30.931Z,70.87
2017-08-09T07:33:57.322Z,70.93
2017-08-09T07:36:23.722Z,70.75
2017-08-09T07:38:50.078Z,70.96
2017-08-09T07:41:16.423Z,70.77
2017-08-09T07:43:42.832Z,70.78
2017-08-09T07:46:09.198Z,70.58
2017-08-09T07:48:35.586Z,70.22
2017-08-09T07:51:02.447Z,69.59
2017-08-09T07:53:28.836Z,70.33
2017-08-09T07:55:55.763Z,69.14
2017-08-09T07:58:22.120Z,69.51
2017-08-09T08:00:48.515Z,68.69
2017-08-09T08:03:14.899Z,68.64
2017-08-09T08:05:41.269Z,68.86
2017-08-09T08:08:07.662Z,68.32
2017-08-09T08:10:34.051Z,68.05
2017-08-09T08:13:00.420Z,67.59
2017-08-09T08:15:26.800Z,67.63
2017-08-09T08:17:53.166Z,67.28
2017-08-09T08:20:19.545Z,67.21
2017-08-09T08:22:45.960Z,67.39
2017-08-09T08:25:12.298Z,67.57
2017-08-09T08:27:38.650Z,67.16
2017-08-09T08:30:05.036Z,67.35
2017-08-09T08:32:31.509Z,67.05
2017-08-09T08:34:57.872Z,67.15
2017-08-09T08:37:24.270Z,67.31
2017-08-09T08:39:50.669Z,67.32
2017-08-09T08:42:17.038Z,66.32
2017-08-09T08:44:43.425Z,66.02
2017-08-09T08:47:09.809Z,65.29
2017-08-09T08:49:36.220Z,65.49
2017-08-09T08:52:02.600Z,65.86
2017-08-09T08:54:29.012Z,65.21
2017-08-09T08:56:55.421Z,64.30
2017-08-09T08:59:21.794Z,63.63
2017-08-09T09:01:48.173Z,63.97
2017-08-09T09:04:14.573Z,63.44
2017-08-09T09:06:40.953Z,62.93
2017-08-09T09:09:07.315Z,62.23
2017-08-09T09:11:33.711Z,62.32
2017-08-09T09:14:00.108Z,61.66
2017-08-09T09:16:26.488Z,61.81
2017-08-09T09:18:52.866Z,61.17
2017-08-09T09:21:19.219Z,61.21
2017-08-09T09:23:45.667Z,61.66
2017-08-09T09:26:12.094Z,60.07
2017-08-09T09:28:38.468Z,60.00
2017-08-09T09:31:04.871Z,60.21
2017-08-09T09:33:31.249Z,59.47
2017-08-09T09:35:57.625Z,58.26
2017-08-09T09:38:24.033Z,58.09
2017-08-09T09:40:50.461Z,57.18
2017-08-09T09:43:16.841Z,56.98
2017-08-09T09:45:43.242Z,57.26
2017-08-09T09:48:09.646Z,57.69
2017-08-09T09:50:36.070Z,57.39
2017-08-09T09:53:02.455Z,58.49
2017-08-09T09:55:28.842Z,57.45
2017-08-09T09:57:55.234Z,57.56
2017-08-09T10:00:21.608Z,58.01
2017-08-09T10:02:47.971Z,58.12
2017-08-09T10:05:14.353Z,56.87
2017-08-09T10:07:41.110Z,57.32
2017-08-09T10:10:07.497Z,55.90
2017-08-09T10:12:33.858Z,56.04
2017-08-09T10:15:00.241Z,55.62
2017-08-09T10:17:26.618Z,55.18
2017-08-09T10:19:52.983Z,54.97
2017-08-09T10:22:19.363Z,55.85
2017-08-09T10:24:45.749Z,54.94
2017-08-09T10:27:12.121Z,55.41
2017-08-09T10:29:38.512Z,53.42
2017-08-09T10:32:04.893Z,54.47
2017-08-09T10:34:31.285Z,53.72
2017-08-09T10:36:58.528Z,53.60
2017-08-09T10:39:24.921Z,51.88
2017-08-09T10:41:51.308Z,52.09
2017-08-09T10:44:18.053Z,51.53
2017-08-09T10:46:44.461Z,51.67
2017-08-09T10:49:10.849Z,52.05
2017-08-09T10:51:37.285Z,51.61
2017-08-09T10:54:03.667Z,50.26
2017-08-09T10:56:30.043Z,50.29
2017-08-09T10:58:56.425Z,49.62
2017-08-09T11:01:22.832Z,49.19
2017-08-09T11:03:49.284Z,48.95
2017-08-09T11:06:15.692Z,48.81
2017-08-09T11:08:42.100Z,49.84
2017-08-09T11:11:09.019Z,49.11
2017-08-09T11:13:35.403Z,50.44
2017-08-09T11:16:01.784Z,49.50
2017-08-09T11:18:28.186Z,49.22
2017-08-09T11:20:54.622Z,48.82
2017-08-09T11:23:20.995Z,49.28
2017-08-09T11:25:47.411Z,48.44
2017-08-09T11:28:13.787Z,47.71
2017-08-09T11:30:40.163Z,48.18
2017-08-09T11:33:06.545Z,48.18
2017-08-09T11:35:32.952Z,46.98
2017-08-09T11:37:59.318Z,46.41
2017-08-09T11:40:25.708Z,46.27
2017-08-09T11:42:52.122Z,47.42
2017-08-09T11:45:18.494Z,47.09
2017-08-09T11:47:44.867Z,47.44
2017-08-09T11:50:11.268Z,45.74
2017-08-09T11:52:37.708Z,45.25
2017-08-09T11:55:04.077Z,45.69
2017-08-09T11:57:30.476Z,45.80
2017-08-09T11:59:56.875Z,45.12
2017-08-09T12:02:24.709Z,45.17
2017-08-09T12:04:51.104Z,45.59
2017-08-09T12:07:17.792Z,44.49
2017-08-09T12:09:45.817Z,44.63
2017-08-09T12:12:12.191Z,45.08
2017-08-09T12:14:38.703Z,45.70
2017-08-09T12:17:05.095Z,45.23
2017-08-09T12:19:31.508Z,47.19
2017-08-09T12:21:57.940Z,45.80
2017-08-09T12:24:24.310Z,45.06
2017-08-09T12:26:50.690Z,46.54
2017-08-09T12:29:17.047Z,45.65
2017-08-09T12:31:43.428Z,46.37
2017-08-09T12:34:09.972Z,45.59
2017-08-09T12:36:36.367Z,43.93
2017-08-09T12:39:02.899Z,43.52
2017-08-09T12:41:29.269Z,44.93
2017-08-09T12:43:55.646Z,42.90
2017-08-09T12:46:22.020Z,43.37
2017-08-09T12:48:48.445Z,43.17
2017-08-09T12:51:14.850Z,42.86
2017-08-09T12:53:41.241Z,43.11
2017-08-09T12:56:07.605Z,43.59
2017-08-09T12:58:33.987Z,43.28
2017-08-09T13:01:00.393Z,43.70
2017-08-09T13:03:26.794Z,43.77
2017-08-09T13:05:53.207Z,42.13
2017-08-09T13:08:19.606Z,42.42
2017-08-09T13:10:46.001Z,41.88
2017-08-09T13:13:12.376Z,41.53
2017-08-09T13:15:38.819Z,40.88
2017-08-09T13:18:05.219Z,42.64
2017-08-09T13:20:31.621Z,41.03
2017-08-09T13:22:58.017Z,41.67
2017-08-09T13:25:24.424Z,41.97
2017-08-09T13:27:50.844Z,42.33
2017-08-09T13:30:17.234Z,42.16
2017-08-09T13:32:43.653Z,42.58
2017-08-09T13:35:10.063Z,45.72
2017-08-09T13:37:36.436Z,44.15
2017-08-09T13:40:02.806Z,42.90
2017-08-09T13:42:29.220Z,43.78
2017-08-09T13:44:55.587Z,41.85
2017-08-09T13:47:22.024Z,41.86
2017-08-09T13:49:48.397Z,40.56
2017-08-09T13:52:14.766Z,43.02
2017-08-09T13:54:41.125Z,42.62
2017-08-09T13:57:07.580Z,40.93
2017-08-09T13:59:33.983Z,40.15
2017-08-09T14:02:00.352Z,40.83
2017-08-09T14:04:26.774Z,40.36
2017-08-09T14:06:53.149Z,39.48
2017-08-09T14:09:19.574Z,40.63
2017-08-09T14:11:45.993Z,41.97
2017-08-09T14:14:12.384Z,42.83
2017-08-09T14:16:38.750Z,43.78
2017-08-09T14:19:05.132Z,42.17
2017-08-09T14:21:31.506Z,41.08
2017-08-09T14:23:57.877Z,39.66
2017-08-09T14:26:24.736Z,39.18
2017-08-09T14:28:51.094Z,39.70
2017-08-09T14:31:17.455Z,40.80
2017-08-09T14:33:43.844Z,40.53
2017-08-09T14:36:10.225Z,41.10
2017-08-09T14:38:36.607Z,43.09
2017-08-09T14:41:02.971Z,39.84
2017-08-09T14:43:29.351Z,40.79
2017-08-09T14:45:55.787Z,39.36
2017-08-09T14:48:22.169Z,39.70
2017-08-09T14:50:48.555Z,39.63
2017-08-09T14:53:14.975Z,40.39
2017-08-09T14:55:41.388Z,39.67
2017-08-09T14:58:07.776Z,41.42
2017-08-09T15:00:34.146Z,41.01
2017-08-09T15:03:00.568Z,40.42
2017-08-09T15:05:26.994Z,41.70
2017-08-09T15:07:53.395Z,42.64
2017-08-09T15:10:19.789Z,42.28
2017-08-09T15:12:46.205Z,44.09
2017-08-09T15:15:12.586Z,43.14
2017-08-09T15:17:38.979Z,43.76
2017-08-09T15:20:05.341Z,42.56
2017-08-09T15:22:31.756Z,41.50
2017-08-09T15:24:58.114Z,40.93
2017-08-09T15:27:24.482Z,41.99
2017-08-09T15:29:50.870Z,40.66
2017-08-09T15:32:17.243Z,41.90
2017-08-09T15:34:43.633Z,43.29
2017-08-09T15:37:10.077Z,42.75
2017-08-09T15:39:36.479Z,43.17
2017-08-09T15:42:02.916Z,42.57
2017-08-09T15:44:29.304Z,46.10
2017-08-09T15:46:55.684Z,48.28
2017-08-09T15:49:22.073Z,45.17
2017-08-09T15:51:48.490Z,42.38
2017-08-09T15:54:14.876Z,47.49
2017-08-09T15:56:41.281Z,47.88
2017-08-09T15:59:07.674Z,45.52
2017-08-09T16:01:34.063Z,44.95
2017-08-09T16:04:00.478Z,44.99
2017-08-09T16:06:26.866Z,43.34
2017-08-09T16:08:53.263Z,43.01
2017-08-09T16:11:19.643Z,40.86
2017-08-09T16:13:46.037Z,41.66
2017-08-09T16:16:12.654Z,43.41
2017-08-09T16:18:39.041Z,43.15
2017-08-09T16:21:05.443Z,43.56
2017-08-09T16:23:31.808Z,44.26
2017-08-09T16:25:58.194Z,41.63
2017-08-09T16:28:24.592Z,40.63
2017-08-09T16:30:50.992Z,41.25
2017-08-09T16:33:17.452Z,42.39
2017-08-09T16:35:43.858Z,42.59
2017-08-09T16:38:10.258Z,43.00
2017-08-09T16:40:36.877Z,42.38
2017-08-09T16:43:03.792Z,41.16
2017-08-09T16:45:30.389Z,42.42
2017-08-09T16:47:57.027Z,43.46
2017-08-09T16:50:23.417Z,44.00
2017-08-09T16:52:49.781Z,43.71
2017-08-09T16:55:16.149Z,44.38
2017-08-09T16:57:42.840Z,45.60
2017-08-09T17:00:09.240Z,44.69
2017-08-09T17:02:35.586Z,44.44
2017-08-09T17:05:02.067Z,43.24
2017-08-09T17:07:28.464Z,45.08
2017-08-09T17:09:54.875Z,45.67
2017-08-09T17:12:21.247Z,46.11
2017-08-09T17:14:47.635Z,46.25
2017-08-09T17:17:14.496Z,45.62
2017-08-09T17:19:40.942Z,46.15
2017-08-09T17:22:07.298Z,46.10
2017-08-09T17:24:33.647Z,44.09
2017-08-09T17:27:00.312Z,43.68
2017-08-09T17:29:26.705Z,45.09
2017-08-09T17:31:53.079Z,47.14
2017-08-09T17:34:19.476Z,47.06
2017-08-09T17:36:45.891Z,44.69
2017-08-09T17:39:12.273Z,45.17
2017-08-09T17:41:38.715Z,45.74
2017-08-09T17:44:05.078Z,46.36
2017-08-09T17:46:31.445Z,46.95
2017-08-09T17:48:57.855Z,47.25
2017-08-09T17:51:24.210Z,47.72
2017-08-09T17:53:50.889Z,48.07
2017-08-09T17:56:17.239Z,48.68
2017-08-09T17:58:43.625Z,48.82
2017-08-09T18:01:10.208Z,48.29
2017-08-09T18:03:36.778Z,47.98
2017-08-09T18:06:03.197Z,48.45
2017-08-09T18:08:29.655Z,49.80
2017-08-09T18:10:56.080Z,50.40
2017-08-09T18:13:22.485Z,50.96
2017-08-09T18:15:48.871Z,51.22
2017-08-09T18:18:15.231Z,51.31
2017-08-09T18:20:41.654Z,52.24
2017-08-09T18:23:08.064Z,52.44
2017-08-09T18:25:34.422Z,52.76
2017-08-09T18:28:00.840Z,52.79
2017-08-09T18:30:27.435Z,52.52
2017-08-09T18:32:54.255Z,52.49
2017-08-09T18:35:20.676Z,52.74
2017-08-09T18:37:47.213Z,53.32
2017-08-09T18:40:13.645Z,53.76
2017-08-09T18:42:40.287Z,54.19
2017-08-09T18:45:06.950Z,54.32
2017-08-09T18:47:33.581Z,54.30
2017-08-09T18:50:00.223Z,54.29
2017-08-09T18:52:27.042Z,54.56
2017-08-09T18:54:53.450Z,54.87
2017-08-09T18:57:19.858Z,54.90
2017-08-09T18:59:46.278Z,54.76
2017-08-09T19:02:12.684Z,55.39
2017-08-09T19:04:39.084Z,54.39
2017-08-09T19:07:05.451Z,54.29
2017-08-09T19:09:31.855Z,54.17
2017-08-09T19:11:58.264Z,54.05
2017-08-09T19:14:24.685Z,54.14
2017-08-09T19:16:51.097Z,54.53
2017-08-09T19:19:18.627Z,54.54
2017-08-09T19:21:45.083Z,54.89
2017-08-09T19:24:11.493Z,55.16
2017-08-09T19:26:37.880Z,54.97
2017-08-09T19:29:04.317Z,54.81
2017-08-09T19:31:30.888Z,54.90
2017-08-09T19:33:57.269Z,55.24
2017-08-09T19:36:23.647Z,55.24
2017-08-09T19:38:50.014Z,55.07
2017-08-09T19:41:16.438Z,55.74
2017-08-09T19:43:42.835Z,56.31
2017-08-09T19:46:09.429Z,57.45
2017-08-09T19:48:35.850Z,57.03
2017-08-09T19:51:02.243Z,56.50
2017-08-09T19:53:28.646Z,56.69
2017-08-09T19:55:55.061Z,56.22
2017-08-09T19:58:21.519Z,56.96
2017-08-09T20:00:47.888Z,57.28
2017-08-09T20:03:14.581Z,56.31
2017-08-09T20:05:41.021Z,56.71
2017-08-09T20:08:07.437Z,56.67
2017-08-09T20:10:33.820Z,56.75
2017-08-09T20:13:00.162Z,56.95
2017-08-09T20:15:26.520Z,57.69
2017-08-09T20:17:53.381Z,56.84
2017-08-09T20:20:19.837Z,56.76
2017-08-09T20:22:46.222Z,56.87
2017-08-09T20:25:12.609Z,57.75
2017-08-09T20:27:39.025Z,58.92
2017-08-09T20:30:05.525Z,58.72
2017-08-09T20:32:31.916Z,57.96
2017-08-09T20:34:58.440Z,58.80
2017-08-09T20:37:24.798Z,58.24
2017-08-09T20:39:51.201Z,57.87
2017-08-09T20:42:17.747Z,58.34
2017-08-09T20:44:44.104Z,59.09
2017-08-09T20:47:10.488Z,58.48
2017-08-09T20:49:36.842Z,58.14
2017-08-09T20:52:03.225Z,57.80
2017-08-09T20:54:29.636Z,58.40
2017-08-09T20:56:56.258Z,58.53
2017-08-09T20:59:22.627Z,58.69
2017-08-09T21:01:50.018Z,60.09
2017-08-09T21:04:16.392Z,60.45
2017-08-09T21:06:42.743Z,61.54
2017-08-09T21:09:09.110Z,61.49
2017-08-09T21:11:35.502Z,61.50
2017-08-09T21:14:01.848Z,61.22
2017-08-09T21:16:28.221Z,60.51
2017-08-09T21:18:54.622Z,59.98
2017-08-09T21:21:20.977Z,60.89
2017-08-09T21:23:47.349Z,60.61
2017-08-09T21:26:13.713Z,60.31
2017-08-09T21:28:40.084Z,59.82
2017-08-09T21:31:06.463Z,60.01
2017-08-09T21:33:32.908Z,59.54
2017-08-09T21:35:59.263Z,60.30
2017-08-09T21:38:25.628Z,60.36
2017-08-09T21:40:52.320Z,61.85
2017-08-09T21:43:18.726Z,62.66
2017-08-09T21:45:45.125Z,62.11
2017-08-09T21:48:11.471Z,61.93
2017-08-09T21:50:37.823Z,61.04
2017-08-09T21:53:04.189Z,61.41
2017-08-09T21:55:30.576Z,61.16
2017-08-09T21:57:56.944Z,61.96
2017-08-09T22:00:23.297Z,61.64
2017-08-09T22:02:53.281Z,61.26
2017-08-09T22:05:22.361Z,61.85
2017-08-09T22:07:48.917Z,62.51
2017-08-09T22:10:15.276Z,62.29
2017-08-09T22:12:41.639Z,61.25
2017-08-09T22:15:08.005Z,62.80
2017-08-09T22:17:34.390Z,63.31
2017-08-09T22:20:00.756Z,64.22
2017-08-09T22:22:27.102Z,64.71
2017-08-09T22:24:53.439Z,63.60
2017-08-09T22:27:19.831Z,62.61
2017-08-09T22:29:46.208Z,61.96
2017-08-09T22:32:12.546Z,62.91
2017-08-09T22:34:38.923Z,63.09
2017-08-09T22:37:05.261Z,63.23
2017-08-09T22:39:31.601Z,64.17
2017-08-09T22:41:57.984Z,62.46
2017-08-09T22:44:24.345Z,62.73
2017-08-09T22:46:50.715Z,62.48
2017-08-09T22:49:17.090Z,64.19
2017-08-09T22:51:43.429Z,65.73
2017-08-09T22:54:09.802Z,65.50
2017-08-09T22:56:36.169Z,64.48
2017-08-09T22:59:02.529Z,64.32
2017-08-09T23:01:28.889Z,64.35
2017-08-09T23:03:55.246Z,64.36
2017-08-09T23:06:21.600Z,63.62
2017-08-09T23:08:47.980Z,63.38
2017-08-09T23:11:14.417Z,64.42
2017-08-09T23:13:40.764Z,64.20
2017-08-09T23:16:07.135Z,65.84
2017-08-09T23:18:33.524Z,66.30
2017-08-09T23:20:59.887Z,66.88
2017-08-09T23:23:26.298Z,66.06
2017-08-09T23:25:52.640Z,65.25
2017-08-09T23:28:18.993Z,64.67
2017-08-09T23:30:45.373Z,64.09
2017-08-09T23:33:11.722Z,64.42
2017-08-09T23:35:38.077Z,64.95
2017-08-09T23:38:04.441Z,64.92
2017-08-09T23:40:30.771Z,64.23
2017-08-09T23:42:57.140Z,63.83
2017-08-09T23:45:23.523Z,63.77
2017-08-09T23:47:49.915Z,64.99
2017-08-09T23:50:16.270Z,65.09
2017-08-09T23:52:42.634Z,65.33
2017-08-09T23:55:08.997Z,65.46
2017-08-09T23:57:35.374Z,65.00
